createdAt,value
2017-10-19T00:00:39.161Z,80.90
2017-10-19T00:01:41.742Z,81.10
2017-10-19T00:02:44.283Z,81.10
2017-10-19T00:03:46.823Z,81.10
2017-10-19T00:04:50.122Z,81.30
2017-10-19T00:05:52.642Z,81.30
2017-10-19T00:06:55.212Z,81.80
2017-10-19T00:07:57.740Z,82.10
2017-10-19T00:09:00.269Z,81.80
2017-10-19T00:10:03.565Z,82.90
2017-10-19T00:11:06.094Z,82.90
2017-10-19T00:12:08.661Z,83.10
2017-10-19T00:13:11.195Z,83.30
2017-10-19T00:14:13.728Z,83.10
2017-10-19T00:15:16.249Z,83.10
2017-10-19T00:16:18.777Z,82.90
2017-10-19T00:17:21.334Z,82.80
2017-10-19T00:18:23.866Z,82.50
2017-10-19T00:19:26.394Z,82.40
2017-10-19T00:20:29.687Z,82.40
2017-10-19T00:21:32.204Z,82.30
2017-10-19T00:22:34.777Z,82.90
2017-10-19T00:23:37.312Z,83.50
2017-10-19T00:24:40.641Z,83.40
2017-10-19T00:25:43.179Z,83.00
2017-10-19T00:26:46.465Z,83.60
2017-10-19T00:27:49.812Z,83.60
2017-10-19T00:28:52.344Z,83.60
2017-10-19T00:29:54.884Z,83.10
2017-10-19T00:30:57.417Z,83.20
2017-10-19T00:31:59.955Z,83.30
2017-10-19T00:33:02.518Z,83.20
2017-10-19T00:34:05.056Z,83.00
2017-10-19T00:35:07.598Z,83.10
2017-10-19T00:36:10.886Z,83.00
2017-10-19T00:37:14.190Z,82.80
2017-10-19T00:38:16.750Z,82.80
2017-10-19T00:39:20.033Z,83.60
2017-10-19T00:40:23.336Z,83.20
2017-10-19T00:41:25.867Z,83.20
2017-10-19T00:42:29.190Z,83.00
2017-10-19T00:43:31.754Z,82.80
2017-10-19T00:44:34.411Z,82.70
2017-10-19T00:45:36.943Z,82.20
2017-10-19T00:46:39.489Z,82.20
2017-10-19T00:47:42.009Z,82.20
2017-10-19T00:48:44.650Z,82.20
2017-10-19T00:49:47.982Z,82.60
2017-10-19T00:50:50.517Z,82.30
2017-10-19T00:51:53.833Z,82.10
2017-10-19T00:52:56.370Z,82.00
2017-10-19T00:53:58.884Z,82.10
2017-10-19T00:55:01.444Z,81.70
2017-10-19T00:56:03.957Z,81.60
2017-10-19T00:57:07.282Z,81.80
2017-10-19T00:58:09.810Z,81.70
2017-10-19T00:59:13.194Z,81.10
2017-10-19T01:00:16.498Z,81.00
2017-10-19T01:01:19.018Z,81.00
2017-10-19T01:02:21.583Z,80.90
2017-10-19T01:03:24.125Z,81.00
2017-10-19T01:04:26.640Z,81.00
2017-10-19T01:05:29.178Z,80.80
2017-10-19T01:06:31.732Z,81.00
2017-10-19T01:07:34.302Z,81.00
2017-10-19T01:08:36.827Z,81.50
2017-10-19T01:09:39.353Z,81.70
2017-10-19T01:10:41.878Z,81.60
2017-10-19T01:11:44.415Z,81.60
2017-10-19T01:12:46.970Z,81.50
2017-10-19T01:13:50.263Z,81.50
2017-10-19T01:14:53.562Z,81.30
2017-10-19T01:15:56.085Z,81.30
2017-10-19T01:16:58.650Z,81.20
2017-10-19T01:18:01.178Z,81.10
2017-10-19T01:19:03.694Z,81.20
2017-10-19T01:20:06.990Z,81.90
2017-10-19T01:21:10.280Z,81.90
2017-10-19T01:22:12.848Z,81.90
2017-10-19T01:23:15.379Z,81.70
2017-10-19T01:24:17.899Z,81.80
2017-10-19T01:25:20.429Z,82.00
2017-10-19T01:26:23.713Z,81.20
2017-10-19T01:27:27.060Z,81.50
2017-10-19T01:28:30.360Z,81.50
2017-10-19T01:29:32.879Z,81.50
2017-10-19T01:30:35.426Z,81.60
2017-10-19T01:31:38.726Z,81.80
2017-10-19T01:32:41.293Z,81.80
2017-10-19T01:33:43.854Z,81.70
2017-10-19T01:34:46.378Z,81.70
2017-10-19T01:35:48.899Z,81.50
2017-10-19T01:36:51.445Z,81.60
2017-10-19T01:37:53.971Z,81.50
2017-10-19T01:38:56.546Z,81.50
2017-10-19T01:39:59.109Z,81.40
2017-10-19T01:41:01.670Z,81.40
2017-10-19T01:42:04.195Z,81.50
2017-10-19T01:43:06.725Z,81.40
2017-10-19T01:44:10.022Z,81.40
2017-10-19T01:45:12.594Z,81.40
2017-10-19T01:46:15.118Z,82.00
2017-10-19T01:47:17.646Z,82.30
2017-10-19T01:48:20.173Z,81.50
2017-10-19T01:49:23.475Z,81.30
2017-10-19T01:50:26.050Z,81.20
2017-10-19T01:51:28.605Z,81.40
2017-10-19T01:52:31.118Z,81.40
2017-10-19T01:53:34.450Z,82.50
2017-10-19T01:54:37.742Z,82.70
2017-10-19T01:55:40.261Z,82.70
2017-10-19T01:56:42.777Z,82.50
2017-10-19T01:57:45.307Z,82.40
2017-10-19T01:58:47.877Z,81.80
2017-10-19T01:59:51.195Z,81.50
2017-10-19T02:00:53.723Z,82.40
2017-10-19T02:01:56.249Z,81.30
2017-10-19T02:02:58.790Z,82.20
2017-10-19T02:04:01.378Z,82.20
2017-10-19T02:05:03.914Z,82.40
2017-10-19T02:06:06.437Z,82.40
2017-10-19T02:07:08.970Z,82.60
2017-10-19T02:08:11.493Z,82.60
2017-10-19T02:09:14.818Z,82.90
2017-10-19T02:10:17.340Z,82.50
2017-10-19T02:11:20.635Z,82.70
2017-10-19T02:12:23.926Z,82.60
2017-10-19T02:13:27.247Z,83.20
2017-10-19T02:14:29.811Z,83.30
2017-10-19T02:15:32.345Z,83.10
2017-10-19T02:16:35.647Z,83.30
2017-10-19T02:17:38.167Z,83.30
2017-10-19T02:18:52.507Z,83.30
2017-10-19T02:19:55.087Z,83.70
2017-10-19T02:20:58.381Z,83.90
2017-10-19T02:22:01.673Z,84.00
2017-10-19T02:23:04.205Z,84.00
2017-10-19T02:24:06.835Z,83.90
2017-10-19T02:25:09.402Z,83.90
2017-10-19T02:26:11.937Z,83.60
2017-10-19T02:27:14.469Z,83.90
2017-10-19T02:28:17.021Z,83.90
2017-10-19T02:29:19.605Z,83.80
2017-10-19T02:30:22.142Z,83.40
2017-10-19T02:31:24.682Z,83.40
2017-10-19T02:32:27.204Z,83.70
2017-10-19T02:33:29.730Z,83.50
2017-10-19T02:34:32.393Z,83.70
2017-10-19T02:35:34.914Z,82.50
2017-10-19T02:36:37.486Z,82.10
2017-10-19T02:37:40.777Z,83.30
2017-10-19T02:38:44.079Z,83.50
2017-10-19T02:39:46.633Z,83.50
2017-10-19T02:40:49.981Z,83.70
2017-10-19T02:41:52.515Z,83.60
2017-10-19T02:42:55.083Z,83.60
2017-10-19T02:43:57.613Z,83.70
2017-10-19T02:45:00.911Z,83.80
2017-10-19T02:46:03.485Z,82.80
2017-10-19T02:47:06.009Z,83.10
2017-10-19T02:48:08.587Z,82.70
2017-10-19T02:49:11.890Z,83.10
2017-10-19T02:50:14.426Z,83.10
2017-10-19T02:51:16.956Z,83.40
2017-10-19T02:52:19.496Z,83.00
2017-10-19T02:53:22.067Z,83.00
2017-10-19T02:54:24.621Z,82.70
2017-10-19T02:55:27.151Z,82.00
2017-10-19T02:56:29.673Z,81.70
2017-10-19T02:57:32.211Z,81.40
2017-10-19T02:58:34.781Z,81.20
2017-10-19T02:59:37.304Z,81.10
2017-10-19T03:00:39.863Z,81.90
2017-10-19T03:01:42.390Z,81.00
2017-10-19T03:02:44.906Z,82.00
2017-10-19T03:03:47.466Z,81.80
2017-10-19T03:04:49.998Z,82.00
2017-10-19T03:05:52.549Z,81.90
2017-10-19T03:06:55.073Z,81.60
2017-10-19T03:07:57.593Z,81.70
2017-10-19T03:09:00.110Z,81.80
2017-10-19T03:10:02.644Z,82.10
2017-10-19T03:11:05.290Z,82.30
2017-10-19T03:12:07.803Z,82.20
2017-10-19T03:13:10.326Z,82.40
2017-10-19T03:14:12.850Z,82.50
2017-10-19T03:15:15.370Z,82.50
2017-10-19T03:16:17.938Z,82.70
2017-10-19T03:17:20.461Z,82.80
2017-10-19T03:18:22.998Z,83.10
2017-10-19T03:19:25.527Z,82.90
2017-10-19T03:20:28.053Z,82.70
2017-10-19T03:21:31.392Z,82.60
2017-10-19T03:22:33.918Z,82.60
2017-10-19T03:23:36.439Z,82.70
2017-10-19T03:24:38.974Z,82.50
2017-10-19T03:25:41.505Z,82.70
2017-10-19T03:26:44.302Z,82.80
2017-10-19T03:27:46.815Z,82.90
2017-10-19T03:28:49.346Z,83.40
2017-10-19T03:29:51.866Z,83.10
2017-10-19T03:30:55.197Z,82.90
2017-10-19T03:31:57.713Z,82.90
2017-10-19T03:33:01.014Z,83.00
2017-10-19T03:34:04.305Z,83.20
2017-10-19T03:35:06.821Z,83.20
2017-10-19T03:36:09.370Z,83.20
2017-10-19T03:37:11.898Z,82.90
2017-10-19T03:38:14.409Z,82.80
2017-10-19T03:39:16.928Z,82.90
2017-10-19T03:40:20.258Z,82.40
2017-10-19T03:41:22.794Z,82.40
2017-10-19T03:42:25.309Z,82.70
2017-10-19T03:43:27.832Z,82.60
2017-10-19T03:44:30.356Z,82.60
2017-10-19T03:45:33.664Z,82.90
2017-10-19T03:46:36.199Z,82.70
2017-10-19T03:47:38.737Z,82.40
2017-10-19T03:48:41.329Z,82.70
2017-10-19T03:49:43.857Z,82.50
2017-10-19T03:50:46.395Z,82.50
2017-10-19T03:51:48.944Z,82.40
2017-10-19T03:52:52.229Z,82.40
2017-10-19T03:53:55.580Z,82.30
2017-10-19T03:54:58.121Z,82.30
2017-10-19T03:56:00.687Z,82.20
2017-10-19T03:57:03.214Z,82.20
2017-10-19T03:58:06.511Z,82.50
2017-10-19T03:59:09.033Z,82.50
2017-10-19T04:00:11.557Z,82.60
2017-10-19T04:01:14.113Z,83.10
2017-10-19T04:02:16.649Z,83.00
2017-10-19T04:03:19.214Z,82.70
2017-10-19T04:04:21.730Z,83.60
2017-10-19T04:05:24.261Z,83.10
2017-10-19T04:06:27.551Z,83.40
2017-10-19T04:07:30.095Z,83.40
2017-10-19T04:08:32.644Z,82.80
2017-10-19T04:09:35.176Z,82.90
2017-10-19T04:10:37.701Z,82.80
2017-10-19T04:11:40.991Z,82.90
2017-10-19T04:12:44.278Z,83.00
2017-10-19T04:13:47.629Z,82.80
2017-10-19T04:14:50.140Z,82.80
2017-10-19T04:15:52.662Z,82.60
2017-10-19T04:16:55.411Z,82.70
2017-10-19T04:17:57.939Z,82.50
2017-10-19T04:19:00.490Z,82.80
2017-10-19T04:20:03.773Z,82.20
2017-10-19T04:21:07.105Z,82.10
2017-10-19T04:22:09.636Z,82.10
2017-10-19T04:23:12.168Z,82.50
2017-10-19T04:24:14.689Z,81.90
2017-10-19T04:25:17.207Z,81.50
2017-10-19T04:26:19.777Z,81.40
2017-10-19T04:27:23.077Z,81.60
2017-10-19T04:28:26.369Z,81.70
2017-10-19T04:29:28.893Z,81.80
2017-10-19T04:30:31.414Z,81.70
2017-10-19T04:31:33.981Z,81.80
2017-10-19T04:32:36.505Z,82.10
2017-10-19T04:33:39.033Z,82.10
2017-10-19T04:34:41.555Z,82.10
2017-10-19T04:35:44.884Z,82.20
2017-10-19T04:36:47.410Z,82.20
2017-10-19T04:37:50.693Z,82.30
2017-10-19T04:38:53.217Z,82.30
2017-10-19T04:39:55.749Z,82.20
2017-10-19T04:40:58.300Z,82.50
2017-10-19T04:42:00.827Z,82.80
2017-10-19T04:43:03.350Z,82.70
2017-10-19T04:44:05.909Z,82.80
2017-10-19T04:45:08.433Z,82.30
2017-10-19T04:46:11.003Z,82.10
2017-10-19T04:47:13.526Z,82.20
2017-10-19T04:48:16.074Z,82.50
2017-10-19T04:49:18.594Z,82.50
2017-10-19T04:50:21.916Z,82.40
2017-10-19T04:51:24.508Z,82.40
2017-10-19T04:52:27.039Z,82.40
2017-10-19T04:53:29.565Z,82.10
2017-10-19T04:54:32.085Z,82.00
2017-10-19T04:55:34.605Z,82.30
2017-10-19T04:56:37.172Z,82.60
2017-10-19T04:57:39.707Z,82.90
2017-10-19T04:58:42.225Z,82.70
2017-10-19T04:59:45.548Z,83.00
2017-10-19T05:00:48.133Z,82.90
2017-10-19T05:01:50.675Z,82.80
2017-10-19T05:02:53.214Z,82.80
2017-10-19T05:03:55.785Z,82.60
2017-10-19T05:04:58.326Z,82.60
2017-10-19T05:06:00.850Z,82.80
2017-10-19T05:07:03.383Z,82.80
2017-10-19T05:08:05.911Z,82.80
2017-10-19T05:09:08.469Z,82.90
2017-10-19T05:10:11.031Z,82.90
2017-10-19T05:11:13.563Z,82.80
2017-10-19T05:12:16.081Z,82.80
2017-10-19T05:13:18.603Z,82.50
2017-10-19T05:14:21.126Z,82.50
2017-10-19T05:15:24.462Z,82.60
2017-10-19T05:16:26.977Z,82.60
2017-10-19T05:17:30.261Z,83.20
2017-10-19T05:18:33.550Z,83.70
2017-10-19T05:19:36.834Z,83.90
2017-10-19T05:20:40.309Z,84.00
2017-10-19T05:21:42.829Z,84.00
2017-10-19T05:22:45.386Z,83.70
2017-10-19T05:23:47.924Z,84.10
2017-10-19T05:24:51.245Z,84.50
2017-10-19T05:25:53.831Z,84.50
2017-10-19T05:26:56.352Z,84.40
2017-10-19T05:27:58.889Z,84.10
2017-10-19T05:29:01.421Z,83.60
2017-10-19T05:30:03.949Z,83.40
2017-10-19T05:31:06.514Z,83.70
2017-10-19T05:32:09.037Z,83.60
2017-10-19T05:33:11.561Z,83.50
2017-10-19T05:34:14.078Z,83.80
2017-10-19T05:35:16.607Z,83.70
2017-10-19T05:36:19.182Z,83.80
2017-10-19T05:37:21.727Z,83.70
2017-10-19T05:38:24.261Z,83.60
2017-10-19T05:39:27.608Z,83.30
2017-10-19T05:40:30.133Z,83.20
2017-10-19T05:41:32.669Z,83.10
2017-10-19T05:42:35.968Z,83.10
2017-10-19T05:43:39.262Z,83.50
2017-10-19T05:44:41.826Z,83.60
2017-10-19T05:45:44.349Z,83.50
2017-10-19T05:46:46.866Z,83.50
2017-10-19T05:47:49.383Z,83.50
2017-10-19T05:48:51.939Z,83.20
2017-10-19T05:49:54.519Z,83.10
2017-10-19T05:50:57.036Z,83.30
2017-10-19T05:51:59.558Z,83.30
2017-10-19T05:53:02.094Z,83.40
2017-10-19T05:54:04.617Z,83.30
2017-10-19T05:55:07.182Z,83.50
2017-10-19T05:56:09.692Z,83.00
2017-10-19T05:57:12.217Z,82.80
2017-10-19T05:58:14.755Z,83.10
2017-10-19T05:59:17.286Z,83.40
2017-10-19T06:00:19.857Z,83.10
2017-10-19T06:01:22.437Z,83.10
2017-10-19T06:02:24.953Z,82.60
2017-10-19T06:03:27.480Z,82.70
2017-10-19T06:04:29.989Z,83.40
2017-10-19T06:05:32.521Z,82.50
2017-10-19T06:06:35.091Z,82.60
2017-10-19T06:07:38.390Z,82.60
2017-10-19T06:08:41.839Z,82.10
2017-10-19T06:09:44.359Z,82.10
2017-10-19T06:10:46.881Z,81.90
2017-10-19T06:11:49.444Z,81.70
2017-10-19T06:12:51.986Z,81.90
2017-10-19T06:13:54.510Z,82.50
2017-10-19T06:14:57.031Z,81.70
2017-10-19T06:15:59.557Z,81.70
2017-10-19T06:17:02.122Z,81.90
2017-10-19T06:18:04.637Z,81.90
2017-10-19T06:19:07.150Z,82.00
2017-10-19T06:20:09.666Z,81.80
2017-10-19T06:21:12.184Z,81.80
2017-10-19T06:22:14.752Z,81.90
2017-10-19T06:23:17.277Z,82.00
2017-10-19T06:24:19.794Z,82.20
2017-10-19T06:25:22.310Z,82.20
2017-10-19T06:26:25.606Z,82.50
2017-10-19T06:27:28.924Z,82.40
2017-10-19T06:28:31.434Z,82.40
2017-10-19T06:29:33.957Z,82.40
2017-10-19T06:30:36.501Z,82.30
2017-10-19T06:31:39.033Z,82.10
2017-10-19T06:32:42.372Z,82.10
2017-10-19T06:33:44.896Z,82.10
2017-10-19T06:34:48.186Z,82.30
2017-10-19T06:35:51.482Z,82.30
2017-10-19T06:36:54.067Z,82.30
2017-10-19T06:37:56.628Z,82.60
2017-10-19T06:38:59.148Z,82.50
2017-10-19T06:40:01.662Z,82.30
2017-10-19T06:41:04.220Z,82.30
2017-10-19T06:42:06.754Z,82.40
2017-10-19T06:43:10.093Z,82.30
2017-10-19T06:44:12.612Z,82.30
2017-10-19T06:45:15.949Z,82.40
2017-10-19T06:46:18.527Z,82.40
2017-10-19T06:47:21.060Z,82.30
2017-10-19T06:48:23.594Z,82.20
2017-10-19T06:49:26.895Z,82.20
2017-10-19T06:50:29.455Z,82.20
2017-10-19T06:51:32.741Z,82.40
2017-10-19T06:52:36.038Z,82.60
2017-10-19T06:53:38.560Z,82.60
2017-10-19T06:54:41.078Z,82.90
2017-10-19T06:55:43.645Z,82.90
2017-10-19T06:56:46.955Z,83.40
2017-10-19T06:57:49.475Z,83.40
2017-10-19T06:58:52.766Z,83.20
2017-10-19T06:59:55.288Z,83.20
2017-10-19T07:00:57.861Z,82.90
2017-10-19T07:02:00.398Z,82.60
2017-10-19T07:03:02.917Z,82.50
2017-10-19T07:04:06.207Z,82.80
2017-10-19T07:05:08.731Z,82.80
2017-10-19T07:06:11.301Z,82.70
2017-10-19T07:07:13.812Z,82.70
2017-10-19T07:08:16.329Z,82.90
2017-10-19T07:09:18.857Z,83.10
2017-10-19T07:10:21.382Z,83.10
2017-10-19T07:11:24.713Z,83.30
2017-10-19T07:12:27.261Z,83.30
2017-10-19T07:13:29.782Z,83.20
2017-10-19T07:14:32.321Z,83.10
2017-10-19T07:15:34.846Z,83.10
2017-10-19T07:16:38.202Z,83.10
2017-10-19T07:17:40.729Z,83.00
2017-10-19T07:18:43.250Z,83.20
2017-10-19T07:19:46.533Z,83.50
2017-10-19T07:20:49.829Z,83.70
2017-10-19T07:21:53.170Z,83.60
2017-10-19T07:22:55.722Z,83.60
2017-10-19T07:23:58.246Z,83.30
2017-10-19T07:25:01.541Z,83.10
2017-10-19T07:26:04.070Z,83.10
2017-10-19T07:27:07.106Z,83.00
2017-10-19T07:28:09.627Z,83.10
2017-10-19T07:29:12.946Z,83.10
2017-10-19T07:30:15.469Z,83.10
2017-10-19T07:31:18.757Z,83.00
2017-10-19T07:32:22.081Z,83.30
2017-10-19T07:33:24.606Z,82.80
2017-10-19T07:34:27.120Z,82.90
2017-10-19T07:35:29.651Z,82.70
2017-10-19T07:36:32.935Z,82.90
2017-10-19T07:37:36.272Z,82.90
2017-10-19T07:38:38.802Z,82.90
2017-10-19T07:39:41.338Z,82.90
2017-10-19T07:40:43.862Z,81.90
2017-10-19T07:41:46.376Z,81.70
2017-10-19T07:42:49.704Z,81.90
2017-10-19T07:43:52.226Z,81.90
2017-10-19T07:44:55.520Z,81.60
2017-10-19T07:45:58.057Z,81.60
2017-10-19T07:47:00.586Z,81.50
2017-10-19T07:48:03.149Z,81.70
2017-10-19T07:49:05.696Z,81.80
2017-10-19T07:50:08.233Z,81.90
2017-10-19T07:51:11.518Z,82.00
2017-10-19T07:52:14.809Z,81.90
2017-10-19T07:53:18.132Z,81.60
2017-10-19T07:54:20.657Z,81.60
2017-10-19T07:55:23.962Z,81.50
2017-10-19T07:56:26.502Z,81.50
2017-10-19T07:57:29.793Z,81.30
2017-10-19T07:58:33.114Z,81.30
2017-10-19T07:59:35.643Z,81.30
2017-10-19T08:00:38.932Z,81.80
2017-10-19T08:01:41.457Z,81.80
2017-10-19T08:02:43.991Z,81.60
2017-10-19T08:03:46.566Z,81.40
2017-10-19T08:04:49.094Z,81.30
2017-10-19T08:05:51.631Z,81.10
2017-10-19T08:06:54.169Z,81.20
2017-10-19T08:07:56.717Z,81.10
2017-10-19T08:08:59.297Z,81.00
2017-10-19T08:10:01.834Z,80.90
2017-10-19T08:11:04.370Z,80.90
2017-10-19T08:12:07.681Z,81.20
2017-10-19T08:13:10.222Z,81.10
2017-10-19T08:14:13.558Z,81.10
2017-10-19T08:15:16.081Z,81.10
2017-10-19T08:16:19.381Z,80.90
2017-10-19T08:17:22.678Z,81.00
2017-10-19T08:18:25.221Z,81.00
2017-10-19T08:19:28.560Z,81.40
2017-10-19T08:20:31.089Z,81.40
2017-10-19T08:21:33.623Z,81.40
2017-10-19T08:22:36.148Z,81.40
2017-10-19T08:23:38.686Z,82.30
2017-10-19T08:24:41.255Z,81.80
2017-10-19T08:25:43.789Z,81.80
2017-10-19T08:26:46.321Z,82.10
2017-10-19T08:27:48.855Z,82.00
2017-10-19T08:28:51.394Z,81.70
2017-10-19T08:29:54.734Z,81.90
2017-10-19T08:30:58.023Z,82.70
2017-10-19T08:32:00.550Z,82.00
2017-10-19T08:33:03.070Z,82.20
2017-10-19T08:34:05.597Z,81.90
2017-10-19T08:35:08.162Z,81.70
2017-10-19T08:36:10.684Z,81.50
2017-10-19T08:37:13.210Z,81.60
2017-10-19T08:38:15.733Z,82.50
2017-10-19T08:39:19.033Z,82.20
2017-10-19T08:40:21.603Z,82.30
2017-10-19T08:41:24.149Z,82.00
2017-10-19T08:42:27.448Z,81.80
2017-10-19T08:43:29.994Z,81.80
2017-10-19T08:44:33.321Z,81.10
2017-10-19T08:45:35.877Z,81.10
2017-10-19T08:46:38.402Z,81.30
2017-10-19T08:47:41.704Z,81.20
2017-10-19T08:48:44.242Z,81.20
2017-10-19T08:49:46.772Z,81.40
2017-10-19T08:50:49.365Z,81.30
2017-10-19T08:51:52.005Z,81.10
2017-10-19T08:52:54.542Z,81.20
2017-10-19T08:53:57.073Z,81.10
2017-10-19T08:54:59.607Z,80.90
2017-10-19T08:56:02.170Z,81.20
2017-10-19T08:57:04.690Z,80.90
2017-10-19T08:58:07.993Z,80.60
2017-10-19T08:59:10.634Z,80.60
2017-10-19T09:00:13.969Z,79.80
2017-10-19T09:01:16.515Z,79.80
2017-10-19T09:02:19.045Z,79.90
2017-10-19T09:03:21.571Z,80.10
2017-10-19T09:04:24.104Z,80.10
2017-10-19T09:05:26.673Z,79.80
2017-10-19T09:06:29.203Z,79.90
2017-10-19T09:07:31.777Z,80.00
2017-10-19T09:08:34.313Z,80.60
2017-10-19T09:09:36.838Z,80.60
2017-10-19T09:10:39.366Z,81.00
2017-10-19T09:11:41.897Z,81.30
2017-10-19T09:12:44.476Z,81.70
2017-10-19T09:13:47.006Z,80.80
2017-10-19T09:14:49.535Z,80.20
2017-10-19T09:15:52.061Z,80.60
2017-10-19T09:16:54.586Z,80.30
2017-10-19T09:17:57.922Z,78.90
2017-10-19T09:19:00.454Z,78.90
2017-10-19T09:20:03.010Z,77.10
2017-10-19T09:21:05.549Z,74.00
2017-10-19T09:22:08.085Z,70.00
2017-10-19T09:23:10.753Z,67.40
2017-10-19T09:24:13.282Z,62.90
2017-10-19T09:25:15.818Z,59.30
2017-10-19T09:26:18.350Z,56.80
2017-10-19T09:27:20.938Z,54.90
2017-10-19T09:28:23.468Z,53.00
2017-10-19T09:29:25.990Z,51.60
2017-10-19T09:30:29.284Z,49.40
2017-10-19T09:31:32.586Z,48.00
2017-10-19T09:32:35.149Z,48.00
2017-10-19T09:33:37.692Z,47.40
2017-10-19T09:34:40.223Z,47.10
2017-10-19T09:35:42.745Z,46.60
2017-10-19T09:36:45.270Z,46.10
2017-10-19T09:37:47.875Z,45.10
2017-10-19T09:38:51.162Z,45.00
2017-10-19T09:39:53.697Z,44.40
2017-10-19T09:40:56.232Z,44.30
2017-10-19T09:41:58.759Z,44.00
2017-10-19T09:43:01.334Z,45.10
2017-10-19T09:44:03.860Z,43.50
2017-10-19T09:45:06.489Z,43.60
2017-10-19T09:46:09.009Z,43.50
2017-10-19T09:47:12.382Z,42.70
2017-10-19T09:48:14.949Z,42.70
2017-10-19T09:49:17.477Z,43.30
2017-10-19T09:50:20.039Z,44.00
2017-10-19T09:51:22.562Z,43.60
2017-10-19T09:52:25.847Z,43.40
2017-10-19T09:53:29.202Z,43.00
2017-10-19T09:54:31.728Z,42.80
2017-10-19T09:55:34.257Z,41.90
2017-10-19T09:56:37.572Z,42.00
2017-10-19T09:57:40.101Z,41.90
2017-10-19T09:58:42.666Z,41.80
2017-10-19T09:59:45.193Z,41.50
2017-10-19T10:00:47.731Z,41.50
2017-10-19T10:01:50.281Z,42.30
2017-10-19T10:02:53.577Z,41.70
2017-10-19T10:03:56.158Z,41.70
2017-10-19T10:04:58.696Z,41.80
2017-10-19T10:06:01.993Z,41.60
2017-10-19T10:07:04.628Z,41.60
2017-10-19T10:08:07.163Z,40.60
2017-10-19T10:09:09.755Z,40.10
2017-10-19T10:10:12.277Z,40.30
2017-10-19T10:11:14.814Z,40.50
2017-10-19T10:12:18.101Z,39.80
2017-10-19T10:13:21.390Z,40.50
2017-10-19T10:14:23.954Z,40.50
2017-10-19T10:15:26.482Z,40.60
2017-10-19T10:16:29.011Z,40.00
2017-10-19T10:17:31.529Z,41.00
2017-10-19T10:18:34.045Z,41.80
2017-10-19T10:19:36.613Z,42.80
2017-10-19T10:20:39.137Z,42.50
2017-10-19T10:21:42.427Z,41.70
2017-10-19T10:22:45.722Z,41.90
2017-10-19T10:23:48.251Z,41.90
2017-10-19T10:24:50.825Z,41.60
2017-10-19T10:25:53.351Z,41.90
2017-10-19T10:26:55.885Z,42.90
2017-10-19T10:27:58.415Z,42.00
2017-10-19T10:29:00.943Z,41.90
2017-10-19T10:30:03.494Z,41.80
2017-10-19T10:31:06.061Z,41.30
2017-10-19T10:32:08.587Z,40.70
2017-10-19T10:33:11.115Z,41.20
2017-10-19T10:34:13.656Z,41.70
2017-10-19T10:35:16.186Z,40.70
2017-10-19T10:36:18.765Z,40.90
2017-10-19T10:37:22.059Z,40.90
2017-10-19T10:38:24.585Z,40.80
2017-10-19T10:39:27.210Z,40.70
2017-10-19T10:40:29.729Z,39.90
2017-10-19T10:41:32.285Z,40.50
2017-10-19T10:42:34.863Z,41.40
2017-10-19T10:43:38.214Z,42.60
2017-10-19T10:44:40.746Z,42.60
2017-10-19T10:45:43.283Z,43.10
2017-10-19T10:46:45.811Z,43.80
2017-10-19T10:47:48.344Z,44.00
2017-10-19T10:48:50.907Z,43.30
2017-10-19T10:49:53.443Z,44.80
2017-10-19T10:50:56.101Z,43.60
2017-10-19T10:51:58.628Z,44.00
2017-10-19T10:53:01.158Z,43.50
2017-10-19T10:54:04.494Z,44.80
2017-10-19T10:55:07.118Z,44.80
2017-10-19T10:56:09.663Z,45.00
2017-10-19T10:57:12.190Z,44.40
2017-10-19T10:58:14.729Z,44.10
2017-10-19T10:59:17.313Z,44.90
2017-10-19T11:00:19.854Z,45.70
2017-10-19T11:01:23.142Z,47.90
2017-10-19T11:02:25.666Z,47.90
2017-10-19T11:03:28.192Z,49.00
2017-10-19T11:04:30.758Z,50.00
2017-10-19T11:05:33.324Z,51.10
2017-10-19T11:06:35.853Z,51.70
2017-10-19T11:07:39.153Z,54.80
2017-10-19T11:08:41.694Z,54.80
2017-10-19T11:09:44.284Z,55.60
2017-10-19T11:10:47.582Z,54.70
2017-10-19T11:11:50.120Z,54.70
2017-10-19T11:12:53.455Z,54.60
2017-10-19T11:13:55.991Z,54.60
2017-10-19T11:14:58.523Z,55.10
2017-10-19T11:16:01.839Z,55.60
2017-10-19T11:17:04.367Z,55.60
2017-10-19T11:18:06.937Z,55.10
2017-10-19T11:19:09.477Z,54.80
2017-10-19T11:20:12.812Z,56.40
2017-10-19T11:21:16.101Z,55.90
2017-10-19T11:22:18.646Z,55.90
2017-10-19T11:23:21.947Z,55.90
2017-10-19T11:24:25.239Z,54.30
2017-10-19T11:25:27.813Z,54.30
2017-10-19T11:26:30.335Z,55.00
2017-10-19T11:27:32.866Z,55.00
2017-10-19T11:28:35.410Z,54.50
2017-10-19T11:29:37.942Z,53.90
2017-10-19T11:30:41.286Z,54.70
2017-10-19T11:31:43.815Z,54.70
2017-10-19T11:32:47.114Z,55.30
2017-10-19T11:33:49.653Z,55.20
2017-10-19T11:34:52.957Z,53.70
2017-10-19T11:35:55.524Z,53.70
2017-10-19T11:36:58.094Z,53.90
2017-10-19T11:38:00.627Z,53.90
2017-10-19T11:39:03.925Z,52.60
2017-10-19T11:40:07.210Z,52.70
2017-10-19T11:41:10.571Z,51.30
2017-10-19T11:42:13.110Z,51.30
2017-10-19T11:43:15.629Z,51.00
2017-10-19T11:44:18.922Z,51.30
2017-10-19T11:45:21.449Z,51.10
2017-10-19T11:46:24.021Z,49.20
2017-10-19T11:47:26.551Z,48.20
2017-10-19T11:48:29.084Z,47.30
2017-10-19T11:49:31.619Z,46.00
2017-10-19T11:50:34.150Z,42.00
2017-10-19T11:51:36.713Z,42.10
2017-10-19T11:52:39.233Z,40.30
2017-10-19T11:53:42.546Z,40.50
2017-10-19T11:54:45.065Z,40.50
2017-10-19T11:55:47.602Z,41.90
2017-10-19T11:56:50.174Z,43.40
2017-10-19T11:57:52.716Z,45.40
2017-10-19T11:58:55.242Z,46.80
2017-10-19T11:59:58.544Z,48.30
2017-10-19T12:01:01.834Z,48.20
2017-10-19T12:02:04.409Z,48.10
2017-10-19T12:03:06.946Z,48.30
2017-10-19T12:04:10.238Z,47.20
2017-10-19T12:05:13.533Z,47.30
2017-10-19T12:06:16.061Z,47.30
2017-10-19T12:07:18.660Z,47.00
2017-10-19T12:08:21.946Z,45.90
2017-10-19T12:09:25.240Z,44.20
2017-10-19T12:10:27.761Z,44.10
2017-10-19T12:11:30.281Z,44.00
2017-10-19T12:12:32.842Z,43.80
2017-10-19T12:13:35.396Z,44.60
2017-10-19T12:14:37.921Z,45.10
2017-10-19T12:15:40.459Z,44.30
2017-10-19T12:16:42.986Z,44.70
2017-10-19T12:17:46.326Z,44.10
2017-10-19T12:18:48.858Z,44.00
2017-10-19T12:19:51.386Z,42.10
2017-10-19T12:20:54.686Z,42.10
2017-10-19T12:21:57.992Z,41.90
2017-10-19T12:23:00.557Z,41.90
2017-10-19T12:24:03.079Z,41.30
2017-10-19T12:25:05.629Z,40.30
2017-10-19T12:26:08.162Z,40.90
2017-10-19T12:27:10.701Z,40.80
2017-10-19T12:28:14.033Z,40.90
2017-10-19T12:29:16.570Z,40.90
2017-10-19T12:30:19.090Z,41.30
2017-10-19T12:31:21.655Z,41.20
2017-10-19T12:32:24.169Z,40.70
2017-10-19T12:33:26.732Z,40.40
2017-10-19T12:34:29.258Z,40.80
2017-10-19T12:35:31.812Z,40.90
2017-10-19T12:36:34.356Z,40.00
2017-10-19T12:37:36.883Z,39.80
2017-10-19T12:38:40.217Z,41.80
2017-10-19T12:39:42.740Z,41.80
2017-10-19T12:40:45.271Z,41.50
2017-10-19T12:41:47.798Z,41.10
2017-10-19T12:42:50.328Z,40.30
2017-10-19T12:43:53.657Z,41.20
2017-10-19T12:44:56.188Z,41.30
2017-10-19T12:45:58.716Z,41.50
2017-10-19T12:47:01.255Z,40.80
2017-10-19T12:48:03.781Z,41.80
2017-10-19T12:49:06.357Z,40.80
2017-10-19T12:50:08.886Z,40.60
2017-10-19T12:51:11.418Z,40.90
2017-10-19T12:52:13.946Z,40.50
2017-10-19T12:53:16.458Z,39.50
2017-10-19T12:54:19.026Z,39.30
2017-10-19T12:55:21.642Z,39.30
2017-10-19T12:56:24.173Z,39.10
2017-10-19T12:57:26.704Z,38.40
2017-10-19T12:58:29.245Z,39.80
2017-10-19T12:59:31.814Z,40.40
2017-10-19T13:00:34.338Z,40.20
2017-10-19T13:01:36.876Z,40.90
2017-10-19T13:02:39.395Z,40.90
2017-10-19T13:03:42.693Z,40.60
2017-10-19T13:04:45.257Z,40.50
2017-10-19T13:05:47.776Z,40.00
2017-10-19T13:06:50.315Z,40.10
2017-10-19T13:07:52.851Z,40.60
2017-10-19T13:08:56.146Z,39.60
2017-10-19T13:09:58.704Z,39.60
2017-10-19T13:11:01.227Z,39.60
2017-10-19T13:12:03.765Z,39.80
2017-10-19T13:13:06.289Z,40.00
2017-10-19T13:14:09.581Z,41.50
2017-10-19T13:15:12.953Z,42.10
2017-10-19T13:16:16.381Z,41.40
2017-10-19T13:17:18.908Z,41.40
2017-10-19T13:18:22.203Z,40.90
2017-10-19T13:19:25.504Z,41.20
2017-10-19T13:20:28.083Z,41.10
2017-10-19T13:21:30.606Z,39.60
2017-10-19T13:22:33.891Z,40.00
2017-10-19T13:23:37.179Z,38.90
2017-10-19T13:24:40.477Z,38.90
2017-10-19T13:25:43.053Z,38.90
2017-10-19T13:26:45.583Z,38.00
2017-10-19T13:27:48.102Z,38.10